createdAt,value
2023-03-26T00:00:07.483Z,0
2023-03-26T00:03:07.610Z,0
2023-03-26T00:06:07.866Z,0
2023-03-26T00:09:07.392Z,0
2023-03-26T00:12:07.435Z,0
2023-03-26T00:15:07.425Z,0
2023-03-26T00:18:07.632Z,0
2023-03-26T00:21:07.341Z,0
2023-03-26T00:24:07.336Z,0
2023-03-26T00:27:07.496Z,0
2023-03-26T00:30:07.542Z,0
2023-03-26T00:33:07.648Z,0
2023-03-26T00:36:11.265Z,0
2023-03-26T00:39:07.355Z,0
2023-03-26T00:42:07.356Z,0
2023-03-26T00:45:07.605Z,0
2023-03-26T00:48:09.614Z,0
2023-03-26T00:51:07.285Z,0
2023-03-26T00:54:07.352Z,0
2023-03-26T00:57:07.603Z,0
2023-03-26T01:00:07.338Z,0
2023-03-26T01:03:08.110Z,0
2023-03-26T01:06:07.372Z,0
2023-03-26T01:09:07.327Z,0
2023-03-26T01:12:07.726Z,0
2023-03-26T01:15:07.495Z,0
2023-03-26T01:18:07.514Z,0
2023-03-26T01:21:07.552Z,0
2023-03-26T01:24:09.424Z,0
2023-03-26T01:27:07.397Z,0
2023-03-26T01:30:07.417Z,0
2023-03-26T01:33:08.153Z,0
2023-03-26T01:36:07.642Z,0
2023-03-26T01:39:07.616Z,0
2023-03-26T01:42:07.382Z,0
2023-03-26T01:45:07.490Z,0
2023-03-26T01:48:07.610Z,0
2023-03-26T01:51:07.390Z,0
2023-03-26T01:54:07.430Z,0
2023-03-26T01:57:08.147Z,0
2023-03-26T02:00:07.450Z,0
2023-03-26T02:03:07.759Z,0
2023-03-26T02:06:07.382Z,0
2023-03-26T02:09:07.789Z,0
2023-03-26T02:12:07.988Z,0
2023-03-26T02:15:07.477Z,0
2023-03-26T02:18:07.705Z,0
2023-03-26T02:21:09.203Z,0
2023-03-26T02:24:08.215Z,0
2023-03-26T02:27:09.465Z,0
2023-03-26T02:30:07.491Z,0
2023-03-26T02:33:07.585Z,0
2023-03-26T02:36:08.961Z,0
2023-03-26T02:39:07.470Z,0
2023-03-26T02:42:07.383Z,0
2023-03-26T02:45:07.404Z,0
2023-03-26T02:48:07.804Z,0
2023-03-26T02:51:07.366Z,0
2023-03-26T02:54:07.397Z,0
2023-03-26T02:57:07.752Z,0
2023-03-26T03:00:07.392Z,0
2023-03-26T03:03:07.768Z,0
2023-03-26T03:06:07.369Z,0
2023-03-26T03:09:07.351Z,0
2023-03-26T03:12:07.283Z,0
2023-03-26T03:15:07.413Z,0
2023-03-26T03:18:07.573Z,0
2023-03-26T03:21:07.429Z,0
2023-03-26T03:24:07.488Z,0
2023-03-26T03:27:07.297Z,0
2023-03-26T03:30:07.417Z,0
2023-03-26T03:33:07.474Z,0
2023-03-26T03:36:07.608Z,0
2023-03-26T03:39:07.427Z,0
2023-03-26T03:42:07.357Z,0
2023-03-26T03:45:07.338Z,0
2023-03-26T03:48:07.692Z,0
2023-03-26T03:51:07.277Z,0
2023-03-26T03:54:07.330Z,0
2023-03-26T03:57:07.611Z,0
2023-03-26T04:00:09.441Z,0
2023-03-26T04:03:07.650Z,0
2023-03-26T04:06:07.302Z,0
2023-03-26T04:09:07.361Z,0
2023-03-26T04:12:07.371Z,0
2023-03-26T04:15:07.443Z,0
2023-03-26T04:18:07.635Z,0
2023-03-26T04:21:07.448Z,0
2023-03-26T04:24:07.315Z,0
2023-03-26T04:27:07.309Z,0
2023-03-26T04:30:07.386Z,0
2023-03-26T04:33:07.543Z,0
2023-03-26T04:36:07.901Z,0
2023-03-26T04:39:07.507Z,3
2023-03-26T04:42:07.338Z,3
2023-03-26T04:45:07.364Z,7
2023-03-26T04:48:07.671Z,13
2023-03-26T04:51:07.319Z,20
2023-03-26T04:54:07.387Z,33
2023-03-26T04:57:07.578Z,47
2023-03-26T05:00:07.424Z,60
2023-03-26T05:03:07.639Z,77
2023-03-26T05:06:07.304Z,103
2023-03-26T05:09:07.408Z,157
2023-03-26T05:12:07.406Z,143
2023-03-26T05:15:07.457Z,170
2023-03-26T05:18:07.579Z,227
2023-03-26T05:21:07.425Z,223
2023-03-26T05:24:07.416Z,417
2023-03-26T05:27:07.365Z,613
2023-03-26T05:30:07.573Z,830
2023-03-26T05:33:07.941Z,920
2023-03-26T05:36:07.513Z,1137
2023-03-26T05:39:07.385Z,1493
2023-03-26T05:42:07.433Z,1487
2023-03-26T05:45:07.457Z,1357
2023-03-26T05:48:07.899Z,1833
2023-03-26T05:51:07.396Z,1893
2023-03-26T05:54:07.445Z,1937
2023-03-26T05:57:07.564Z,2097
2023-03-26T06:00:07.602Z,1943
2023-03-26T06:03:08.266Z,1967
2023-03-26T06:06:07.377Z,2343
2023-03-26T06:09:09.604Z,2357
2023-03-26T06:12:07.375Z,3287
2023-03-26T06:15:07.381Z,3253
2023-03-26T06:18:07.575Z,3283
2023-03-26T06:21:07.382Z,1493
2023-03-26T06:24:07.383Z,2267
2023-03-26T06:27:07.373Z,2090
2023-03-26T06:30:07.391Z,2417
2023-03-26T06:33:07.545Z,4073
2023-03-26T06:36:07.658Z,2957
2023-03-26T06:39:14.221Z,3143
2023-03-26T06:42:07.395Z,3280
2023-03-26T06:45:07.448Z,2823
2023-03-26T06:48:07.672Z,2080
2023-03-26T06:51:07.464Z,1797
2023-03-26T06:54:07.397Z,3690
2023-03-26T06:57:07.746Z,4047
2023-03-26T07:00:08.113Z,4860
2023-03-26T07:03:07.559Z,4967
2023-03-26T07:06:07.410Z,4440
2023-03-26T07:09:07.431Z,7210
2023-03-26T07:12:07.355Z,8060
2023-03-26T07:15:07.459Z,10583
2023-03-26T07:18:07.501Z,8743
2023-03-26T07:21:07.362Z,7497
2023-03-26T07:24:07.392Z,9933
2023-03-26T07:27:07.367Z,9983
2023-03-26T07:30:07.496Z,11563
2023-03-26T07:33:07.608Z,11017
2023-03-26T07:36:07.508Z,9817
2023-03-26T07:39:07.323Z,10030
2023-03-26T07:42:07.427Z,9170
2023-03-26T07:45:07.425Z,8407
2023-03-26T07:48:07.535Z,8533
2023-03-26T07:51:07.381Z,5423
2023-03-26T07:54:07.567Z,5320
2023-03-26T07:57:09.090Z,5253
2023-03-26T08:00:07.470Z,4930
2023-03-26T08:03:08.100Z,5497
2023-03-26T08:06:07.409Z,6747
2023-03-26T08:09:07.676Z,6407
2023-03-26T08:12:07.578Z,8253
2023-03-26T08:15:07.451Z,9597
2023-03-26T08:18:07.662Z,10967
2023-03-26T08:21:07.412Z,10063
2023-03-26T08:24:07.374Z,11467
2023-03-26T08:27:07.349Z,13550
2023-03-26T08:30:07.674Z,15730
2023-03-26T08:33:07.555Z,17373
2023-03-26T08:36:07.593Z,19800
2023-03-26T08:39:07.345Z,13580
2023-03-26T08:42:07.373Z,13677
2023-03-26T08:45:07.420Z,11763
2023-03-26T08:48:07.582Z,9810
2023-03-26T08:51:07.382Z,8107
2023-03-26T08:54:07.380Z,7560
2023-03-26T08:57:07.643Z,7783
2023-03-26T09:00:09.684Z,11823
2023-03-26T09:03:07.585Z,13057
2023-03-26T09:06:07.391Z,13813
2023-03-26T09:09:07.449Z,9887
2023-03-26T09:12:07.446Z,7947
2023-03-26T09:15:07.469Z,7160
2023-03-26T09:18:07.779Z,10463
2023-03-26T09:21:07.380Z,12127
2023-03-26T09:24:07.431Z,12093
2023-03-26T09:27:07.395Z,13753
2023-03-26T09:30:07.419Z,18707
2023-03-26T09:33:07.648Z,29480
2023-03-26T09:36:07.769Z,47067
2023-03-26T09:39:07.362Z,48660
2023-03-26T09:42:07.442Z,27517
2023-03-26T09:45:07.449Z,14303
2023-03-26T09:48:07.547Z,9197
2023-03-26T09:51:07.447Z,7230
2023-03-26T09:54:07.412Z,5447
2023-03-26T09:57:07.639Z,4563
2023-03-26T10:00:07.547Z,4727
2023-03-26T10:03:07.590Z,4843
2023-03-26T10:06:07.392Z,5977
2023-03-26T10:09:07.436Z,7100
2023-03-26T10:12:07.413Z,8160
2023-03-26T10:15:07.485Z,10770
2023-03-26T10:18:32.426Z,11727
2023-03-26T10:21:07.355Z,14450
2023-03-26T10:24:07.382Z,14173
2023-03-26T10:27:17.562Z,8543
2023-03-26T10:30:07.487Z,5837
2023-03-26T10:33:07.649Z,4373
2023-03-26T10:36:07.591Z,3413
2023-03-26T10:39:07.449Z,3747
2023-03-26T10:42:07.352Z,4467
2023-03-26T10:45:09.579Z,5970
2023-03-26T10:48:07.671Z,9643
2023-03-26T10:51:07.389Z,15473
2023-03-26T10:54:07.398Z,22590
2023-03-26T10:57:07.711Z,24300
2023-03-26T11:00:07.450Z,22080
2023-03-26T11:03:07.582Z,19877
2023-03-26T11:06:07.619Z,18750
2023-03-26T11:09:07.378Z,19553
2023-03-26T11:12:30.950Z,20817
2023-03-26T11:15:07.469Z,19800
2023-03-26T11:18:07.587Z,18980
2023-03-26T11:21:27.314Z,18313
2023-03-26T11:24:13.015Z,17120
2023-03-26T11:27:28.506Z,15733
2023-03-26T11:30:07.501Z,15180
2023-03-26T11:33:07.531Z,16580
2023-03-26T11:36:07.746Z,19673
2023-03-26T11:39:07.477Z,20803
2023-03-26T11:42:07.425Z,19900
2023-03-26T11:45:07.470Z,20393
2023-03-26T11:48:07.662Z,21207
2023-03-26T11:51:07.422Z,21950
2023-03-26T11:54:07.444Z,22560
2023-03-26T11:57:13.846Z,23397
2023-03-26T12:00:07.650Z,24797
2023-03-26T12:03:07.576Z,28003
2023-03-26T12:06:07.414Z,30313
2023-03-26T12:09:07.378Z,29847
2023-03-26T12:12:07.414Z,30570
2023-03-26T12:15:07.384Z,36967
2023-03-26T12:18:07.561Z,39690
2023-03-26T12:21:10.534Z,28413
2023-03-26T12:24:07.517Z,21987
2023-03-26T12:27:07.394Z,17870
2023-03-26T12:30:07.485Z,14920
2023-03-26T12:33:07.540Z,9837
2023-03-26T12:36:07.820Z,7853
2023-03-26T12:45:08.682Z,6383
2023-03-26T12:48:11.383Z,6973
2023-03-26T12:51:07.546Z,6230
2023-03-26T12:54:07.520Z,4723
2023-03-26T12:57:20.110Z,4910
2023-03-26T13:00:07.700Z,5790
2023-03-26T13:03:07.949Z,6773
2023-03-26T13:06:07.405Z,7733
2023-03-26T13:09:07.372Z,8690
2023-03-26T13:12:07.412Z,9390
2023-03-26T13:15:07.501Z,9687
2023-03-26T13:18:07.772Z,9967
2023-03-26T13:21:07.640Z,10327
2023-03-26T13:24:07.414Z,10707
2023-03-26T13:27:07.401Z,10560
2023-03-26T13:30:07.528Z,10150
2023-03-26T13:33:07.647Z,9603
2023-03-26T13:36:30.385Z,9040
2023-03-26T13:39:07.619Z,8570
2023-03-26T13:42:07.418Z,8463
2023-03-26T13:45:12.710Z,8517
2023-03-26T13:48:07.675Z,8727
2023-03-26T13:51:07.453Z,9047
2023-03-26T13:54:07.422Z,9187
2023-03-26T13:57:07.779Z,9390
2023-03-26T14:00:07.561Z,10367
2023-03-26T14:03:07.678Z,10923
2023-03-26T14:06:07.354Z,9787
2023-03-26T14:09:07.331Z,7243
2023-03-26T14:12:07.374Z,5840
2023-03-26T14:15:07.376Z,5923
2023-03-26T14:18:07.602Z,6807
2023-03-26T14:21:07.386Z,6087
2023-03-26T14:24:07.398Z,4990
2023-03-26T14:27:07.359Z,4967
2023-03-26T14:30:10.903Z,5710
2023-03-26T14:33:07.552Z,6500
2023-03-26T14:36:07.740Z,7163
2023-03-26T14:39:07.358Z,7267
2023-03-26T14:42:07.408Z,6810
2023-03-26T14:45:07.394Z,5910
2023-03-26T14:48:10.208Z,4800
2023-03-26T14:51:07.814Z,4137
2023-03-26T14:54:07.354Z,3767
2023-03-26T14:57:07.754Z,3797
2023-03-26T15:00:07.537Z,4030
2023-03-26T15:03:07.672Z,4257
2023-03-26T15:06:07.392Z,4680
2023-03-26T15:09:07.496Z,4680
2023-03-26T15:12:20.202Z,4353
2023-03-26T15:15:07.515Z,4553
2023-03-26T15:18:07.449Z,5123
2023-03-26T15:21:07.438Z,5660
2023-03-26T15:24:07.390Z,5593
2023-03-26T15:27:07.375Z,5163
2023-03-26T15:30:07.509Z,4530
2023-03-26T15:33:07.706Z,3837
2023-03-26T15:36:07.705Z,3107
2023-03-26T15:39:07.523Z,2287
2023-03-26T15:42:07.676Z,1850
2023-03-26T15:45:07.371Z,1747
2023-03-26T15:48:10.394Z,1767
2023-03-26T15:51:07.348Z,1857
2023-03-26T15:54:07.412Z,2113
2023-03-26T15:57:07.657Z,2257
2023-03-26T16:00:07.452Z,2227
2023-03-26T16:03:07.516Z,2233
2023-03-26T16:06:07.395Z,2313
2023-03-26T16:09:07.374Z,2417
2023-03-26T16:12:07.333Z,2147
2023-03-26T16:15:07.432Z,1673
2023-03-26T16:18:07.575Z,1690
2023-03-26T16:21:07.378Z,1637
2023-03-26T16:24:07.419Z,1343
2023-03-26T16:27:07.410Z,1343
2023-03-26T16:30:07.489Z,1437
2023-03-26T16:33:07.705Z,1597
2023-03-26T16:36:07.627Z,1537
2023-03-26T16:39:07.389Z,1313
2023-03-26T16:42:13.448Z,1047
2023-03-26T16:45:07.972Z,873
2023-03-26T16:48:07.922Z,847
2023-03-26T16:51:07.369Z,823
2023-03-26T16:54:07.587Z,737
2023-03-26T16:57:07.562Z,640
2023-03-26T17:00:14.131Z,590
2023-03-26T17:03:07.756Z,613
2023-03-26T17:06:07.418Z,637
2023-03-26T17:09:08.841Z,657
2023-03-26T17:12:07.422Z,593
2023-03-26T17:15:07.616Z,470
2023-03-26T17:18:07.808Z,397
2023-03-26T17:21:07.339Z,307
2023-03-26T17:24:07.420Z,277
2023-03-26T17:27:07.861Z,230
2023-03-26T17:30:07.663Z,203
2023-03-26T17:33:07.646Z,157
2023-03-26T17:36:07.770Z,120
2023-03-26T17:39:07.636Z,90
2023-03-26T17:42:07.563Z,80
2023-03-26T17:45:07.428Z,60
2023-03-26T17:48:07.468Z,40
2023-03-26T17:51:07.293Z,27
2023-03-26T17:54:07.395Z,17
2023-03-26T17:57:07.622Z,13
2023-03-26T18:00:07.382Z,7
2023-03-26T18:03:07.839Z,3
2023-03-26T18:06:07.293Z,3
2023-03-26T18:09:13.168Z,0
2023-03-26T18:12:07.326Z,0
2023-03-26T18:15:07.356Z,0
2023-03-26T18:18:07.457Z,0
2023-03-26T18:21:10.241Z,0
2023-03-26T18:24:07.443Z,0
2023-03-26T18:27:08.186Z,0
2023-03-26T18:30:09.651Z,0
2023-03-26T18:33:07.840Z,0
2023-03-26T18:36:07.524Z,0
2023-03-26T18:39:07.342Z,0
2023-03-26T18:42:07.356Z,0
2023-03-26T18:45:11.820Z,0
2023-03-26T18:48:07.527Z,0
2023-03-26T18:51:11.678Z,0
2023-03-26T18:54:07.366Z,0
2023-03-26T18:57:20.096Z,0
2023-03-26T19:00:07.380Z,0
2023-03-26T19:03:08.011Z,0
2023-03-26T19:06:07.331Z,0
2023-03-26T19:09:19.986Z,0
2023-03-26T19:12:07.348Z,0
2023-03-26T19:15:07.351Z,0
2023-03-26T19:18:07.620Z,0
2023-03-26T19:21:07.482Z,0
2023-03-26T19:24:07.410Z,0
2023-03-26T19:27:07.791Z,0
2023-03-26T19:30:07.414Z,0
2023-03-26T19:33:20.781Z,0
2023-03-26T19:36:07.579Z,0
2023-03-26T19:39:07.428Z,0
2023-03-26T19:42:07.392Z,0
2023-03-26T19:45:07.317Z,0
2023-03-26T19:48:47.677Z,0
2023-03-26T19:51:07.329Z,0
2023-03-26T19:54:07.421Z,0
2023-03-26T19:57:07.689Z,0
2023-03-26T20:00:07.470Z,0
2023-03-26T20:03:08.039Z,0
2023-03-26T20:06:07.327Z,0
2023-03-26T20:09:07.335Z,0
2023-03-26T20:12:07.365Z,0
2023-03-26T20:15:07.441Z,0
2023-03-26T20:18:07.758Z,0
2023-03-26T20:21:07.349Z,0
2023-03-26T20:24:07.333Z,0
2023-03-26T20:27:07.420Z,0
2023-03-26T20:30:10.502Z,0
2023-03-26T20:33:20.412Z,0
2023-03-26T20:36:07.773Z,0
2023-03-26T20:39:07.411Z,0
2023-03-26T20:42:07.309Z,0
2023-03-26T20:45:07.576Z,0
2023-03-26T20:48:07.663Z,0
2023-03-26T20:51:08.104Z,0
2023-03-26T20:54:07.522Z,0
2023-03-26T20:57:07.492Z,0
2023-03-26T21:00:07.456Z,0
2023-03-26T21:03:07.514Z,0
2023-03-26T21:06:07.355Z,0
2023-03-26T21:09:07.356Z,0
2023-03-26T21:12:07.417Z,0
2023-03-26T21:15:27.400Z,0
2023-03-26T21:18:07.590Z,0
2023-03-26T21:21:26.768Z,0
2023-03-26T21:24:07.348Z,0
2023-03-26T21:27:07.374Z,0
2023-03-26T21:30:07.362Z,0
2023-03-26T21:33:07.837Z,0
2023-03-26T21:36:07.936Z,0
2023-03-26T21:39:07.358Z,0
2023-03-26T21:42:12.640Z,0
2023-03-26T21:45:07.344Z,0
2023-03-26T21:48:07.627Z,0
2023-03-26T21:51:07.287Z,0
2023-03-26T21:54:07.357Z,0
2023-03-26T21:57:07.587Z,0
2023-03-26T22:00:07.790Z,0
2023-03-26T22:03:07.825Z,0
2023-03-26T22:06:07.392Z,0
2023-03-26T22:09:07.332Z,0
2023-03-26T22:12:07.349Z,0
2023-03-26T22:15:07.306Z,0
2023-03-26T22:18:07.665Z,0
2023-03-26T22:21:07.434Z,0
2023-03-26T22:24:07.322Z,0
2023-03-26T22:27:07.347Z,0
2023-03-26T22:30:07.481Z,0
2023-03-26T22:33:07.651Z,0
2023-03-26T22:36:24.836Z,0
2023-03-26T22:39:07.348Z,0
2023-03-26T22:42:07.503Z,0
2023-03-26T22:45:07.477Z,0
2023-03-26T22:48:11.371Z,0
2023-03-26T22:51:07.345Z,0
2023-03-26T22:54:07.381Z,0
2023-03-26T22:57:07.577Z,0
2023-03-26T23:00:07.435Z,0
2023-03-26T23:03:07.960Z,0
2023-03-26T23:06:07.425Z,0
2023-03-26T23:09:07.320Z,0
2023-03-26T23:12:07.379Z,0
2023-03-26T23:15:07.305Z,0
2023-03-26T23:18:07.623Z,0
2023-03-26T23:21:13.960Z,0
2023-03-26T23:24:07.392Z,0
2023-03-26T23:27:07.381Z,0
2023-03-26T23:30:07.359Z,0
2023-03-26T23:33:07.422Z,0
2023-03-26T23:36:11.771Z,0
2023-03-26T23:39:07.406Z,0
2023-03-26T23:42:07.341Z,0
2023-03-26T23:45:07.340Z,0
2023-03-26T23:48:07.527Z,0
2023-03-26T23:51:11.028Z,0
2023-03-26T23:54:07.346Z,0
2023-03-26T23:57:07.754Z,0
